« Back
NWS Peachtree City, Ga » Text Product » MCN Terminal Aerodrome Forecast


Printer-friendly Version
Current Version              Previous Versions:   1  2  3  4  5  6  7  8  9  

Terminal Aerodrome Forecast

045
FTUS42 KFFC 191100
TAFMCN
TAF
KMCN 191120Z 1912/2012 03012G20KT 6SM -RA BKN008
     FM192100 04014G24KT P6SM BKN015
     FM200100 04010KT P6SM BKN020=

USA.gov is the U.S. government's official web portal to all federal, state and local government web resources and services.